Terminal Aerodrome Forecast
Issued by NWS

Home | Current Version | Previous Version | Text Only | Print | Product List | Glossary On
Versions: 1 2 3 4 5 6 7 8 9 10 11 12 13 14 15 16 17 18 19
000
FTUS43 KLSX 262300
TAFCPS
TAF
KCPS 262327Z 2700/2724 35012G20KT P6SM OVC025
     FM270300 35010G18KT P6SM BKN035
     FM270600 33008KT P6SM SCT020
     FM271800 02005KT P6SM BKN150=

USA.gov is the U.S. government's official web portal to all federal, state and local government web resources and services.